Trenton, Florida
Current Conditions -  °F | °C
As of 4:53 PM on Tuesday 21 Oct 2014 (Local Time) from KGNV Reporting Station
Clear Clear  
Wind Chill: 81°   Ceiling: Unl
Heat Index: 82°   Visibility: 10mi
Dew Point: 63°   Wind: 3mph
Humidity: 54%   Direction: NA
Pressure: 29.91"   Gusts: NA
Location:  29.61°N, 82.82°W
Report Text: KGNV 212053Z VRB03KT 10SM CLR 27/17 A2991 RMK AO2 SLP127 T02720172 56010
Loading
Personal Weather Stations






























Interactive Weather Map
Tropical Storm Tracking
New forecast layout! Learn more

10-Day Weather Forecast

Advertisements
Track Severe Weather on mobile